createdAt,value
2022-09-27T00:00:01.350Z,10.70
2022-09-27T00:01:01.510Z,10.56
2022-09-27T00:02:01.722Z,10.58
2022-09-27T00:03:02.006Z,10.65
2022-09-27T00:04:02.598Z,10.59
2022-09-27T00:05:03.244Z,10.60
2022-09-27T00:06:02.351Z,10.52
2022-09-27T00:07:02.499Z,10.65
2022-09-27T00:08:02.651Z,10.56
2022-09-27T00:09:02.807Z,10.56
2022-09-27T00:10:03.124Z,10.53
2022-09-27T00:11:04.104Z,10.52
2022-09-27T00:12:04.102Z,10.58
2022-09-27T00:13:03.477Z,10.44
2022-09-27T00:14:03.606Z,10.44
2022-09-27T00:15:03.751Z,10.52
2022-09-27T00:16:04.021Z,10.51
2022-09-27T00:17:04.616Z,10.47
2022-09-27T00:18:04.619Z,10.55
2022-09-27T00:19:05.133Z,10.46
2022-09-27T00:20:05.603Z,10.51
2022-09-27T00:21:04.866Z,10.46
2022-09-27T00:22:05.012Z,10.44
2022-09-27T00:23:05.159Z,10.46
2022-09-27T00:24:05.273Z,10.52
2022-09-27T00:25:05.426Z,10.43
2022-09-27T00:26:05.616Z,10.55
2022-09-27T00:27:05.771Z,10.56
2022-09-27T00:28:05.922Z,10.40
2022-09-27T00:29:06.089Z,10.37
2022-09-27T00:30:07.104Z,10.40
2022-09-27T00:31:06.657Z,10.25
2022-09-27T00:32:06.466Z,10.36
2022-09-27T00:33:07.607Z,10.34
2022-09-27T00:34:06.826Z,10.33
2022-09-27T00:35:06.981Z,10.37
2022-09-27T00:36:07.609Z,10.40
2022-09-27T00:37:07.368Z,10.28
2022-09-27T00:38:07.488Z,10.21
2022-09-27T00:39:07.631Z,10.21
2022-09-27T00:40:07.792Z,10.36
2022-09-27T00:41:08.005Z,10.32
2022-09-27T00:42:08.125Z,10.37
2022-09-27T00:43:08.291Z,10.26
2022-09-27T00:44:08.648Z,10.30
2022-09-27T00:45:08.693Z,10.28
2022-09-27T00:46:08.962Z,10.34
2022-09-27T00:47:09.030Z,10.33
2022-09-27T00:48:09.192Z,10.33
2022-09-27T00:49:09.374Z,10.28
2022-09-27T00:50:09.502Z,10.25
2022-09-27T00:51:09.661Z,10.26
2022-09-27T00:52:10.124Z,10.22
2022-09-27T00:53:10.018Z,10.18
2022-09-27T00:54:10.158Z,10.25
2022-09-27T00:55:11.116Z,10.15
2022-09-27T00:56:10.472Z,10.14
2022-09-27T00:57:10.638Z,10.18
2022-09-27T00:58:11.610Z,10.12
2022-09-27T00:59:11.005Z,10.14
2022-09-27T01:00:11.180Z,10.14
2022-09-27T01:01:11.348Z,10.10
2022-09-27T01:02:11.611Z,10.09
2022-09-27T01:03:11.647Z,10.18
2022-09-27T01:04:12.611Z,10.06
2022-09-27T01:05:11.992Z,10.07
2022-09-27T01:06:12.144Z,10.10
2022-09-27T01:07:12.249Z,10.09
2022-09-27T01:08:12.479Z,10.09
2022-09-27T01:09:12.833Z,10.00
2022-09-27T01:10:12.903Z,9.96
2022-09-27T01:11:13.614Z,9.93
2022-09-27T01:12:13.234Z,10.01
2022-09-27T01:13:13.364Z,9.93
2022-09-27T01:14:13.495Z,9.93
2022-09-27T01:15:13.669Z,9.93
2022-09-27T01:16:14.661Z,9.89
2022-09-27T01:17:13.945Z,10.01
2022-09-27T01:18:14.131Z,9.94
2022-09-27T01:19:14.352Z,9.97
2022-09-27T01:20:14.437Z,9.97
2022-09-27T01:21:14.569Z,9.91
2022-09-27T01:22:14.698Z,9.97
2022-09-27T01:23:14.868Z,9.91
2022-09-27T01:24:15.004Z,9.91
2022-09-27T01:25:15.157Z,9.88
2022-09-27T01:26:15.292Z,9.81
2022-09-27T01:27:15.436Z,9.91
2022-09-27T01:28:15.637Z,9.88
2022-09-27T01:29:15.868Z,9.96
2022-09-27T01:30:16.621Z,9.97
2022-09-27T01:31:16.202Z,9.96
2022-09-27T01:32:16.307Z,10.01
2022-09-27T01:33:16.482Z,9.97
2022-09-27T01:34:16.638Z,10.01
2022-09-27T01:35:16.792Z,9.93
2022-09-27T01:36:16.953Z,9.76
2022-09-27T01:37:17.112Z,9.91
2022-09-27T01:38:17.250Z,9.96
2022-09-27T01:39:18.396Z,9.85
2022-09-27T01:40:17.684Z,9.96
2022-09-27T01:41:17.774Z,9.93
2022-09-27T01:42:22.050Z,10.00
2022-09-27T01:43:19.620Z,9.88
2022-09-27T01:44:18.200Z,9.93
2022-09-27T01:45:18.340Z,9.97
2022-09-27T01:46:18.540Z,9.96
2022-09-27T01:47:19.627Z,9.89
2022-09-27T01:48:18.875Z,9.88
2022-09-27T01:49:19.624Z,9.89
2022-09-27T01:50:19.303Z,9.94
2022-09-27T01:51:20.135Z,9.86
2022-09-27T01:52:19.615Z,9.91
2022-09-27T01:53:19.759Z,9.96
2022-09-27T01:54:19.891Z,9.83
2022-09-27T01:55:20.135Z,9.86
2022-09-27T01:56:21.128Z,9.88
2022-09-27T01:57:21.125Z,9.81
2022-09-27T01:58:21.123Z,9.86
2022-09-27T01:59:20.654Z,9.93
2022-09-27T02:00:21.634Z,9.83
2022-09-27T02:01:21.036Z,9.88
2022-09-27T02:02:21.308Z,9.89
2022-09-27T02:03:21.415Z,9.88
2022-09-27T02:04:21.565Z,9.88
2022-09-27T02:05:21.746Z,9.81
2022-09-27T02:06:21.888Z,9.76
2022-09-27T02:07:22.036Z,9.85
2022-09-27T02:08:22.169Z,9.79
2022-09-27T02:09:22.315Z,9.73
2022-09-27T02:10:22.480Z,9.76
2022-09-27T02:11:23.633Z,9.81
2022-09-27T02:12:22.872Z,9.82
2022-09-27T02:13:23.032Z,9.83
2022-09-27T02:14:23.153Z,9.89
2022-09-27T02:15:23.271Z,9.86
2022-09-27T02:16:23.478Z,9.81
2022-09-27T02:17:23.568Z,9.79
2022-09-27T02:18:23.749Z,9.79
2022-09-27T02:19:23.871Z,9.83
2022-09-27T02:20:24.027Z,9.70
2022-09-27T02:21:25.138Z,9.81
2022-09-27T02:22:24.642Z,9.85
2022-09-27T02:23:24.539Z,9.78
2022-09-27T02:24:24.725Z,9.86
2022-09-27T02:25:24.886Z,9.83
2022-09-27T02:26:25.036Z,9.82
2022-09-27T02:27:25.157Z,9.75
2022-09-27T02:28:25.312Z,9.76
2022-09-27T02:29:25.434Z,9.76
2022-09-27T02:30:25.576Z,9.66
2022-09-27T02:31:26.711Z,9.76
2022-09-27T02:32:25.861Z,9.71
2022-09-27T02:33:26.144Z,9.63
2022-09-27T02:34:26.116Z,9.68
2022-09-27T02:35:26.370Z,9.82
2022-09-27T02:36:26.503Z,9.82
2022-09-27T02:37:27.140Z,9.79
2022-09-27T02:38:26.756Z,9.75
2022-09-27T02:39:26.883Z,9.73
2022-09-27T02:40:27.084Z,9.76
2022-09-27T02:41:27.272Z,9.76
2022-09-27T02:42:27.403Z,9.88
2022-09-27T02:43:28.141Z,9.82
2022-09-27T02:44:28.638Z,9.83
2022-09-27T02:45:28.644Z,9.82
2022-09-27T02:46:28.223Z,9.86
2022-09-27T02:47:28.281Z,9.81
2022-09-27T02:48:28.414Z,9.85
2022-09-27T02:49:28.610Z,9.88
2022-09-27T02:50:29.643Z,9.81
2022-09-27T02:51:28.920Z,9.79
2022-09-27T02:52:29.100Z,9.83
2022-09-27T02:53:29.253Z,9.91
2022-09-27T02:54:29.411Z,9.82
2022-09-27T02:55:29.566Z,9.81
2022-09-27T02:56:29.749Z,9.75
2022-09-27T02:57:29.952Z,9.79
2022-09-27T02:58:30.127Z,9.70
2022-09-27T02:59:30.290Z,9.82
2022-09-27T03:00:30.459Z,9.79
2022-09-27T03:01:31.734Z,9.78
2022-09-27T03:02:30.989Z,9.86
2022-09-27T03:03:30.974Z,9.81
2022-09-27T03:04:32.166Z,9.79
2022-09-27T03:05:31.305Z,9.76
2022-09-27T03:06:31.481Z,9.82
2022-09-27T03:07:32.689Z,9.67
2022-09-27T03:08:31.854Z,9.66
2022-09-27T03:09:32.650Z,9.75
2022-09-27T03:10:32.206Z,9.61
2022-09-27T03:11:32.383Z,9.67
2022-09-27T03:12:32.566Z,9.76
2022-09-27T03:13:32.853Z,9.81
2022-09-27T03:14:32.877Z,9.81
2022-09-27T03:15:33.641Z,9.73
2022-09-27T03:16:34.233Z,9.71
2022-09-27T03:17:34.147Z,9.78
2022-09-27T03:18:33.547Z,9.78
2022-09-27T03:19:33.693Z,9.67
2022-09-27T03:20:34.648Z,9.75
2022-09-27T03:21:34.651Z,9.81
2022-09-27T03:22:34.160Z,9.73
2022-09-27T03:23:34.329Z,9.81
2022-09-27T03:24:34.488Z,9.81
2022-09-27T03:25:34.658Z,9.85
2022-09-27T03:26:34.828Z,9.79
2022-09-27T03:27:34.991Z,9.71
2022-09-27T03:28:35.158Z,9.83
2022-09-27T03:29:35.325Z,9.79
2022-09-27T03:30:35.676Z,9.75
2022-09-27T03:31:35.619Z,9.71
2022-09-27T03:32:35.810Z,9.75
2022-09-27T03:33:35.960Z,9.78
2022-09-27T03:34:36.648Z,9.81
2022-09-27T03:35:36.311Z,9.71
2022-09-27T03:36:36.466Z,9.79
2022-09-27T03:38:10.007Z,9.67
2022-09-27T03:38:37.689Z,9.73
2022-09-27T03:39:36.939Z,9.75
2022-09-27T03:40:37.157Z,9.76
2022-09-27T03:41:37.261Z,9.70
2022-09-27T03:42:37.376Z,9.64
2022-09-27T03:43:37.526Z,9.66
2022-09-27T03:44:37.678Z,9.73
2022-09-27T03:45:37.820Z,9.68
2022-09-27T03:46:38.279Z,9.57
2022-09-27T03:47:38.128Z,9.67
2022-09-27T03:48:38.253Z,9.75
2022-09-27T03:49:38.375Z,9.68
2022-09-27T03:50:38.539Z,9.70
2022-09-27T03:51:38.686Z,9.66
2022-09-27T03:52:38.841Z,9.70
2022-09-27T03:53:38.968Z,9.75
2022-09-27T03:54:39.103Z,9.75
2022-09-27T03:55:39.271Z,9.73
2022-09-27T03:56:39.398Z,9.76
2022-09-27T03:57:40.197Z,9.70
2022-09-27T03:58:39.672Z,9.70
2022-09-27T03:59:39.821Z,9.73
2022-09-27T04:00:40.701Z,9.68
2022-09-27T04:01:40.216Z,9.64
2022-09-27T04:02:40.434Z,9.67
2022-09-27T04:03:40.514Z,9.68
2022-09-27T04:04:40.642Z,9.66
2022-09-27T04:05:41.708Z,9.75
2022-09-27T04:06:40.947Z,9.73
2022-09-27T04:07:41.213Z,9.63
2022-09-27T04:08:41.212Z,9.64
2022-09-27T04:09:44.725Z,9.64
2022-09-27T04:10:42.491Z,9.70
2022-09-27T04:11:41.631Z,9.67
2022-09-27T04:12:41.779Z,9.68
2022-09-27T04:13:41.917Z,9.67
2022-09-27T04:14:42.061Z,9.71
2022-09-27T04:15:42.216Z,9.73
2022-09-27T04:16:42.414Z,9.73
2022-09-27T04:17:42.519Z,9.67
2022-09-27T04:18:42.694Z,9.67
2022-09-27T04:19:42.861Z,9.71
2022-09-27T04:20:43.704Z,9.66
2022-09-27T04:21:43.714Z,9.68
2022-09-27T04:22:43.356Z,9.64
2022-09-27T04:23:43.560Z,9.73
2022-09-27T04:24:44.212Z,9.66
2022-09-27T04:25:44.215Z,9.64
2022-09-27T04:26:44.699Z,9.64
2022-09-27T04:27:44.214Z,9.66
2022-09-27T04:28:45.206Z,9.66
2022-09-27T04:29:44.590Z,9.68
2022-09-27T04:30:44.816Z,9.71
2022-09-27T04:31:45.706Z,9.61
2022-09-27T04:32:45.087Z,9.58
2022-09-27T04:33:45.221Z,9.64
2022-09-27T04:34:46.170Z,9.64
2022-09-27T04:35:46.650Z,9.68
2022-09-27T04:36:45.821Z,9.63
2022-09-27T04:37:46.021Z,9.67
2022-09-27T04:38:46.188Z,9.66
2022-09-27T04:39:47.206Z,9.64
2022-09-27T04:40:47.260Z,9.68
2022-09-27T04:41:46.715Z,9.63
2022-09-27T04:42:46.889Z,9.58
2022-09-27T04:43:47.065Z,9.67
2022-09-27T04:44:48.203Z,9.71
2022-09-27T04:45:47.537Z,9.73
2022-09-27T04:46:47.660Z,9.68
2022-09-27T04:47:48.238Z,9.79
2022-09-27T04:48:48.016Z,9.76
2022-09-27T04:49:48.708Z,9.73
2022-09-27T04:50:48.392Z,9.64
2022-09-27T04:51:48.559Z,9.58
2022-09-27T04:52:48.773Z,9.50
2022-09-27T04:53:48.944Z,9.50
2022-09-27T04:54:49.098Z,9.57
2022-09-27T04:55:49.269Z,9.48
2022-09-27T04:56:49.427Z,9.61
2022-09-27T04:57:49.606Z,9.50
2022-09-27T04:58:49.775Z,9.50
2022-09-27T04:59:49.912Z,9.46
2022-09-27T05:00:50.070Z,9.43
2022-09-27T05:01:50.248Z,9.49
2022-09-27T05:02:51.227Z,9.43
2022-09-27T05:03:50.627Z,9.49
2022-09-27T05:04:50.774Z,9.45
2022-09-27T05:05:51.226Z,9.48
2022-09-27T05:06:56.292Z,9.52
2022-09-27T05:07:53.226Z,9.49
2022-09-27T05:08:51.731Z,9.46
2022-09-27T05:09:51.657Z,9.49
2022-09-27T05:10:51.857Z,9.48
2022-09-27T05:11:52.718Z,9.49
2022-09-27T05:12:52.261Z,9.57
2022-09-27T05:13:52.732Z,9.49
2022-09-27T05:14:52.660Z,9.57
2022-09-27T05:15:52.836Z,9.53
2022-09-27T05:16:53.045Z,9.46
2022-09-27T05:17:53.212Z,9.56
2022-09-27T05:18:53.390Z,9.58
2022-09-27T05:19:53.550Z,9.56
2022-09-27T05:20:54.223Z,9.57
2022-09-27T05:21:54.228Z,9.56
2022-09-27T05:22:54.033Z,9.56
2022-09-27T05:23:54.724Z,9.56
2022-09-27T05:24:54.378Z,9.49
2022-09-27T05:25:54.524Z,9.57
2022-09-27T05:26:54.663Z,9.57
2022-09-27T05:27:54.854Z,9.57
2022-09-27T05:28:55.031Z,9.60
2022-09-27T05:29:55.198Z,9.58
2022-09-27T05:30:55.384Z,9.58
2022-09-27T05:31:55.555Z,9.67
2022-09-27T05:32:55.722Z,9.63
2022-09-27T05:33:56.834Z,9.52
2022-09-27T05:34:56.718Z,9.61
2022-09-27T05:35:56.738Z,9.61
2022-09-27T05:36:56.351Z,9.57
2022-09-27T05:37:56.593Z,9.57
2022-09-27T05:38:56.715Z,9.56
2022-09-27T05:39:56.886Z,9.56
2022-09-27T05:40:57.060Z,9.58
2022-09-27T05:41:57.742Z,9.46
2022-09-27T05:42:58.226Z,9.56
2022-09-27T05:43:57.573Z,9.58
2022-09-27T05:44:57.735Z,9.60
2022-09-27T05:45:58.269Z,9.63
2022-09-27T05:46:58.027Z,9.56
2022-09-27T05:47:58.720Z,9.63
2022-09-27T05:48:58.344Z,9.60
2022-09-27T05:49:59.232Z,9.63
2022-09-27T05:50:58.733Z,9.58
2022-09-27T05:51:58.876Z,9.67
2022-09-27T05:52:59.007Z,9.61
2022-09-27T05:53:59.115Z,9.64
2022-09-27T05:55:00.229Z,9.58
2022-09-27T05:56:00.222Z,9.67
2022-09-27T05:56:59.695Z,9.71
2022-09-27T05:58:00.733Z,9.76
2022-09-27T05:58:59.948Z,9.61
2022-09-27T06:00:00.153Z,9.64
2022-09-27T06:01:00.394Z,9.67
2022-09-27T06:02:01.317Z,9.58
2022-09-27T06:03:00.754Z,9.57
2022-09-27T06:04:00.866Z,9.68
2022-09-27T06:05:00.993Z,9.66
2022-09-27T06:06:01.223Z,9.60
2022-09-27T06:07:02.231Z,9.66
2022-09-27T06:08:01.603Z,9.64
2022-09-27T06:09:01.817Z,9.64
2022-09-27T06:10:02.723Z,9.66
2022-09-27T06:11:02.077Z,9.57
2022-09-27T06:12:02.253Z,9.66
2022-09-27T06:13:02.399Z,9.63
2022-09-27T06:14:02.559Z,9.58
2022-09-27T06:15:02.671Z,9.64
2022-09-27T06:16:02.850Z,9.64
2022-09-27T06:17:03.925Z,9.66
2022-09-27T06:18:03.108Z,9.71
2022-09-27T06:19:03.298Z,9.66
2022-09-27T06:20:03.452Z,9.64
2022-09-27T06:21:03.744Z,9.61
2022-09-27T06:22:03.773Z,9.66
2022-09-27T06:23:04.728Z,9.58
2022-09-27T06:24:04.729Z,9.60
2022-09-27T06:25:04.223Z,9.63
2022-09-27T06:26:04.401Z,9.60
2022-09-27T06:27:04.569Z,9.58
2022-09-27T06:28:04.736Z,9.52
2022-09-27T06:29:05.240Z,9.61
2022-09-27T06:30:05.151Z,9.58
2022-09-27T06:31:05.371Z,9.67
2022-09-27T06:32:05.465Z,9.56
2022-09-27T06:33:05.616Z,9.66
2022-09-27T06:34:05.755Z,9.70
2022-09-27T06:35:05.895Z,9.68
2022-09-27T06:36:06.121Z,9.63
2022-09-27T06:37:06.268Z,9.68
2022-09-27T06:38:06.425Z,9.67
2022-09-27T06:39:06.571Z,9.68
2022-09-27T06:40:07.252Z,9.60
2022-09-27T06:41:06.882Z,9.66
2022-09-27T06:42:07.772Z,9.68
2022-09-27T06:43:07.162Z,9.64
2022-09-27T06:44:07.336Z,9.68
2022-09-27T06:45:07.488Z,9.75
2022-09-27T06:46:07.736Z,9.67
2022-09-27T06:47:07.825Z,9.78
2022-09-27T06:48:08.733Z,9.63
2022-09-27T06:49:08.111Z,9.76
2022-09-27T06:50:08.263Z,9.81
2022-09-27T06:51:08.431Z,10.00
2022-09-27T06:52:08.752Z,9.93
2022-09-27T06:53:08.785Z,9.99
2022-09-27T06:54:08.937Z,9.91
2022-09-27T06:55:09.123Z,9.93
2022-09-27T06:56:09.259Z,9.93
2022-09-27T06:57:09.428Z,9.99
2022-09-27T06:58:09.581Z,9.99
2022-09-27T06:59:09.838Z,9.91
2022-09-27T07:00:09.953Z,9.89
2022-09-27T07:01:10.278Z,9.91
2022-09-27T07:02:10.392Z,10.00
2022-09-27T07:03:10.484Z,9.97
2022-09-27T07:04:10.654Z,10.18
2022-09-27T07:05:10.803Z,10.51
2022-09-27T07:06:10.982Z,11.17
2022-09-27T07:07:11.204Z,11.72
2022-09-27T07:08:11.366Z,12.34
2022-09-27T07:09:11.607Z,13.04
2022-09-27T07:10:11.665Z,12.99
2022-09-27T07:11:11.843Z,12.95
2022-09-27T07:12:12.761Z,13.43
2022-09-27T07:13:12.177Z,13.98
2022-09-27T07:14:12.366Z,14.27
2022-09-27T07:15:12.558Z,13.92
2022-09-27T07:16:12.774Z,13.55
2022-09-27T07:17:13.765Z,13.18
2022-09-27T07:18:13.743Z,12.84
2022-09-27T07:19:13.273Z,12.31
2022-09-27T07:20:13.416Z,11.90
2022-09-27T07:21:14.253Z,11.49
2022-09-27T07:22:13.812Z,11.32
2022-09-27T07:23:13.958Z,11.16
2022-09-27T07:24:14.098Z,11.09
2022-09-27T07:25:14.774Z,10.94
2022-09-27T07:26:14.405Z,10.89
2022-09-27T07:27:14.761Z,10.81
2022-09-27T07:28:18.471Z,10.80
2022-09-27T07:29:16.982Z,10.84
2022-09-27T07:30:16.178Z,10.84
2022-09-27T07:31:15.796Z,10.73
2022-09-27T07:32:15.547Z,10.68
2022-09-27T07:33:15.679Z,10.60
2022-09-27T07:34:16.772Z,10.60
2022-09-27T07:35:16.016Z,10.58
2022-09-27T07:36:16.168Z,10.42
2022-09-27T07:37:16.318Z,10.36
2022-09-27T07:38:17.247Z,10.19
2022-09-27T07:39:17.372Z,10.19
2022-09-27T07:40:17.292Z,10.14
2022-09-27T07:41:16.963Z,10.12
2022-09-27T07:42:17.261Z,10.07
2022-09-27T07:43:17.252Z,10.00
2022-09-27T07:44:18.254Z,10.03
2022-09-27T07:45:17.501Z,9.94
2022-09-27T07:46:18.270Z,9.91
2022-09-27T07:47:17.818Z,9.83
2022-09-27T07:48:18.749Z,9.86
2022-09-27T07:49:18.142Z,9.93
2022-09-27T07:50:19.251Z,9.91
2022-09-27T07:51:19.249Z,9.96
2022-09-27T07:52:18.648Z,9.93
2022-09-27T07:53:18.793Z,9.86
2022-09-27T07:54:18.949Z,9.82
2022-09-27T07:55:19.087Z,9.79
2022-09-27T07:56:19.801Z,9.79
2022-09-27T07:57:19.427Z,9.76
2022-09-27T07:58:19.579Z,9.67
2022-09-27T07:59:19.750Z,9.58
2022-09-27T08:00:19.897Z,9.57
2022-09-27T08:01:20.164Z,9.52
2022-09-27T08:02:20.234Z,9.57
2022-09-27T08:03:21.257Z,9.63
2022-09-27T08:04:21.486Z,9.64
2022-09-27T08:05:20.613Z,9.66
2022-09-27T08:06:20.760Z,9.73
2022-09-27T08:07:21.917Z,9.71
2022-09-27T08:08:21.753Z,9.73
2022-09-27T08:09:21.237Z,9.68
2022-09-27T08:10:22.255Z,9.76
2022-09-27T08:11:21.629Z,9.63
2022-09-27T08:12:22.256Z,9.75
2022-09-27T08:13:21.976Z,9.78
2022-09-27T08:14:22.210Z,9.76
2022-09-27T08:15:22.322Z,9.68
2022-09-27T08:16:22.561Z,9.83
2022-09-27T08:17:22.615Z,9.73
2022-09-27T08:18:24.278Z,9.73
2022-09-27T08:19:23.769Z,9.78
2022-09-27T08:20:23.008Z,9.78
2022-09-27T08:21:23.139Z,9.76
2022-09-27T08:22:23.259Z,9.86
2022-09-27T08:23:23.398Z,9.76
2022-09-27T08:24:23.504Z,9.86
2022-09-27T08:25:24.347Z,9.86
2022-09-27T08:26:23.843Z,9.85
2022-09-27T08:27:23.961Z,9.99
2022-09-27T08:28:24.223Z,9.91
2022-09-27T08:29:24.346Z,9.96
2022-09-27T08:30:25.260Z,9.81
2022-09-27T08:31:25.326Z,9.78
2022-09-27T08:32:24.741Z,9.83
2022-09-27T08:33:28.621Z,9.76
2022-09-27T08:34:26.768Z,9.81
2022-09-27T08:35:25.360Z,9.86
2022-09-27T08:36:25.615Z,9.89
2022-09-27T08:37:25.840Z,9.85
2022-09-27T08:38:26.091Z,9.89
2022-09-27T08:39:26.208Z,9.88
2022-09-27T08:40:26.336Z,9.97
2022-09-27T08:41:27.261Z,9.88
2022-09-27T08:42:26.631Z,9.85
2022-09-27T08:43:27.274Z,9.97
2022-09-27T08:44:27.764Z,9.99
2022-09-27T08:45:27.189Z,10.00
2022-09-27T08:46:27.367Z,10.07
2022-09-27T08:47:28.270Z,9.96
2022-09-27T08:48:27.762Z,10.01
2022-09-27T08:49:27.930Z,10.00
2022-09-27T08:50:28.140Z,10.09
2022-09-27T08:51:28.292Z,10.06
2022-09-27T08:52:28.428Z,10.15
2022-09-27T08:53:28.556Z,10.04
2022-09-27T08:54:28.692Z,10.03
2022-09-27T08:55:28.837Z,10.00
2022-09-27T08:56:29.280Z,9.99
2022-09-27T08:57:29.782Z,9.99
2022-09-27T08:58:29.275Z,9.91
2022-09-27T08:59:29.399Z,9.96
2022-09-27T09:00:29.650Z,9.86
2022-09-27T09:01:29.820Z,9.89
2022-09-27T09:02:30.027Z,9.94
2022-09-27T09:03:30.769Z,9.88
2022-09-27T09:04:31.272Z,10.03
2022-09-27T09:05:30.616Z,10.12
2022-09-27T09:06:30.759Z,10.00
2022-09-27T09:07:30.866Z,10.03
2022-09-27T09:08:31.000Z,10.12
2022-09-27T09:09:31.772Z,10.22
2022-09-27T09:10:31.289Z,10.15
2022-09-27T09:11:31.428Z,10.24
2022-09-27T09:12:31.599Z,10.26
2022-09-27T09:13:31.737Z,10.37
2022-09-27T09:14:31.899Z,10.46
2022-09-27T09:15:32.781Z,10.36
2022-09-27T09:16:32.320Z,10.51
2022-09-27T09:17:32.477Z,10.40
2022-09-27T09:18:33.201Z,10.30
2022-09-27T09:19:32.759Z,10.43
2022-09-27T09:20:33.789Z,10.39
2022-09-27T09:21:33.133Z,10.53
2022-09-27T09:22:33.261Z,10.43
2022-09-27T09:23:34.285Z,10.24
2022-09-27T09:24:33.649Z,10.17
2022-09-27T09:25:33.781Z,10.15
2022-09-27T09:26:33.923Z,10.14
2022-09-27T09:27:34.779Z,10.01
2022-09-27T09:28:34.303Z,10.01
2022-09-27T09:29:34.492Z,10.09
2022-09-27T09:30:34.659Z,10.10
2022-09-27T09:31:34.863Z,10.14
2022-09-27T09:32:35.073Z,10.26
2022-09-27T09:33:35.239Z,10.07
2022-09-27T09:34:35.442Z,10.21
2022-09-27T09:35:35.568Z,10.12
2022-09-27T09:36:36.282Z,10.21
2022-09-27T09:37:35.929Z,10.22
2022-09-27T09:38:36.095Z,10.33
2022-09-27T09:39:36.277Z,10.34
2022-09-27T09:40:36.473Z,10.39
2022-09-27T09:41:37.277Z,10.44
2022-09-27T09:42:37.280Z,10.40
2022-09-27T09:43:36.970Z,10.63
2022-09-27T09:44:37.782Z,10.56
2022-09-27T09:45:37.333Z,10.62
2022-09-27T09:46:41.103Z,10.60
2022-09-27T09:47:38.675Z,10.59
2022-09-27T09:48:37.817Z,10.59
2022-09-27T09:49:37.984Z,10.68
2022-09-27T09:50:38.181Z,10.68
2022-09-27T09:51:38.387Z,10.76
2022-09-27T09:52:38.543Z,10.74
2022-09-27T09:53:38.720Z,10.78
2022-09-27T09:54:38.883Z,10.73
2022-09-27T09:55:39.057Z,10.71
2022-09-27T09:56:39.245Z,10.56
2022-09-27T09:57:39.423Z,10.74
2022-09-27T09:58:39.592Z,10.53
2022-09-27T09:59:40.334Z,10.52
2022-09-27T10:00:40.180Z,10.65
2022-09-27T10:01:40.204Z,10.44
2022-09-27T10:02:40.399Z,10.44
2022-09-27T10:03:40.585Z,10.43
2022-09-27T10:04:40.771Z,10.44
2022-09-27T10:05:41.789Z,10.44
2022-09-27T10:06:41.073Z,10.47
2022-09-27T10:07:41.220Z,10.40
2022-09-27T10:08:41.392Z,10.56
2022-09-27T10:09:42.284Z,10.52
2022-09-27T10:10:41.673Z,10.44
2022-09-27T10:11:41.829Z,10.53
2022-09-27T10:12:41.980Z,10.60
2022-09-27T10:13:42.150Z,10.59
2022-09-27T10:14:42.799Z,10.65
2022-09-27T10:15:43.287Z,10.66
2022-09-27T10:16:43.303Z,10.58
2022-09-27T10:17:43.793Z,10.51
2022-09-27T10:18:47.656Z,10.59
2022-09-27T10:19:45.330Z,10.58
2022-09-27T10:20:44.298Z,10.55
2022-09-27T10:21:43.547Z,10.62
2022-09-27T10:22:43.705Z,10.62
2022-09-27T10:23:43.870Z,10.53
2022-09-27T10:24:44.034Z,10.56
2022-09-27T10:25:44.217Z,10.47
2022-09-27T10:26:44.332Z,10.62
2022-09-27T10:27:44.573Z,10.46
2022-09-27T10:28:45.288Z,10.60
2022-09-27T10:29:45.793Z,10.55
2022-09-27T10:30:45.306Z,10.68
2022-09-27T10:31:45.279Z,10.68
2022-09-27T10:32:45.330Z,10.74
2022-09-27T10:33:47.299Z,10.76
2022-09-27T10:34:45.650Z,10.73
2022-09-27T10:35:45.816Z,10.76
2022-09-27T10:36:45.951Z,10.83
2022-09-27T10:37:46.069Z,10.73
2022-09-27T10:38:46.208Z,10.84
2022-09-27T10:39:48.313Z,10.78
2022-09-27T10:40:46.873Z,10.89
2022-09-27T10:41:47.306Z,10.86
2022-09-27T10:42:46.815Z,10.96
2022-09-27T10:43:46.968Z,10.95
2022-09-27T10:44:47.810Z,11.10
2022-09-27T10:45:48.383Z,11.06
2022-09-27T10:46:47.519Z,11.14
2022-09-27T10:47:47.659Z,11.31
2022-09-27T10:48:49.293Z,11.54
2022-09-27T10:49:47.933Z,11.62
2022-09-27T10:50:50.880Z,11.67
2022-09-27T10:51:49.797Z,11.65
2022-09-27T10:52:48.418Z,11.49
2022-09-27T10:53:48.584Z,11.62
2022-09-27T10:54:48.760Z,11.52
2022-09-27T10:55:48.922Z,11.43
2022-09-27T10:56:49.075Z,11.46
2022-09-27T10:57:49.270Z,11.50
2022-09-27T10:58:49.480Z,11.47
2022-09-27T10:59:49.639Z,11.56
2022-09-27T11:00:50.330Z,11.62
2022-09-27T11:01:50.016Z,11.68
2022-09-27T11:02:50.193Z,11.77
2022-09-27T11:03:50.353Z,11.77
2022-09-27T11:04:50.576Z,11.97
2022-09-27T11:05:50.647Z,11.93
2022-09-27T11:06:50.833Z,11.86
2022-09-27T11:07:51.003Z,11.68
2022-09-27T11:08:51.172Z,11.50
2022-09-27T11:09:52.301Z,11.49
2022-09-27T11:10:52.301Z,11.31
2022-09-27T11:11:51.690Z,11.19
2022-09-27T11:12:52.840Z,11.09
2022-09-27T11:13:51.958Z,11.03
2022-09-27T11:14:52.801Z,11.06
2022-09-27T11:15:52.336Z,11.06
2022-09-27T11:16:52.482Z,10.94
2022-09-27T11:17:52.642Z,10.91
2022-09-27T11:18:52.804Z,10.96
2022-09-27T11:19:53.810Z,10.95
2022-09-27T11:20:53.334Z,10.92
2022-09-27T11:21:53.364Z,10.94
2022-09-27T11:22:54.305Z,11.02
2022-09-27T11:23:53.724Z,11.11
2022-09-27T11:24:53.905Z,11.16
2022-09-27T11:25:54.066Z,11.21
2022-09-27T11:26:54.216Z,11.29
2022-09-27T11:27:54.378Z,11.38
2022-09-27T11:28:54.590Z,11.41
2022-09-27T11:29:54.822Z,11.41
2022-09-27T11:30:54.859Z,11.52
2022-09-27T11:31:55.096Z,11.57
2022-09-27T11:32:55.181Z,11.59
2022-09-27T11:33:55.311Z,11.59
2022-09-27T11:34:55.440Z,11.62
2022-09-27T11:35:55.582Z,11.57
2022-09-27T11:36:55.829Z,11.65
2022-09-27T11:37:55.976Z,11.62
2022-09-27T11:38:59.304Z,11.78
2022-09-27T11:39:58.352Z,11.70
2022-09-27T11:40:56.681Z,11.74
2022-09-27T11:41:57.312Z,11.75
2022-09-27T11:42:56.926Z,11.94
2022-09-27T11:43:57.064Z,11.90
2022-09-27T11:45:19.762Z,11.97
2022-09-27T11:46:19.241Z,11.96
2022-09-27T11:46:59.931Z,11.96
2022-09-27T11:47:57.956Z,11.75
2022-09-27T11:48:57.950Z,11.85
2022-09-27T11:49:59.835Z,11.64
2022-09-27T11:50:59.032Z,11.62
2022-09-27T11:51:58.437Z,11.54
2022-09-27T11:52:58.636Z,11.44
2022-09-27T11:53:58.779Z,11.54
2022-09-27T11:54:58.940Z,11.59
2022-09-27T11:55:59.090Z,11.49
2022-09-27T11:56:59.268Z,11.54
2022-09-27T11:57:59.446Z,11.32
2022-09-27T11:59:00.386Z,11.34
2022-09-27T11:59:59.829Z,11.27
2022-09-27T12:00:59.992Z,11.32
2022-09-27T12:02:00.208Z,11.38
2022-09-27T12:03:00.308Z,11.41
2022-09-27T12:04:00.420Z,11.59
2022-09-27T12:05:00.828Z,11.62
2022-09-27T12:06:06.328Z,11.89
2022-09-27T12:07:02.933Z,12.19
2022-09-27T12:08:01.818Z,12.46
2022-09-27T12:09:01.340Z,12.64
2022-09-27T12:10:02.318Z,12.71
2022-09-27T12:11:01.686Z,12.74
2022-09-27T12:12:01.841Z,12.48
2022-09-27T12:13:02.014Z,12.48
2022-09-27T12:14:02.339Z,12.45
2022-09-27T12:15:06.613Z,12.39
2022-09-27T12:16:03.639Z,12.42
2022-09-27T12:17:02.782Z,12.34
2022-09-27T12:18:02.950Z,12.30
2022-09-27T12:19:03.132Z,12.16
2022-09-27T12:20:03.320Z,12.05
2022-09-27T12:21:03.469Z,12.09
2022-09-27T12:22:04.323Z,12.27
2022-09-27T12:23:04.326Z,12.20
2022-09-27T12:24:03.951Z,12.04
2022-09-27T12:25:04.123Z,12.04
2022-09-27T12:26:04.279Z,11.94
2022-09-27T12:27:04.414Z,11.80
2022-09-27T12:28:04.564Z,11.94
2022-09-27T12:29:04.738Z,11.87
2022-09-27T12:30:04.861Z,11.94
2022-09-27T12:31:28.118Z,12.05
2022-09-27T12:32:07.351Z,12.09
2022-09-27T12:33:05.465Z,12.05
2022-09-27T12:34:05.611Z,12.11
2022-09-27T12:35:06.322Z,12.26
2022-09-27T12:36:05.959Z,12.39
2022-09-27T12:37:06.842Z,12.33
2022-09-27T12:38:07.330Z,12.41
2022-09-27T12:39:06.579Z,12.39
2022-09-27T12:40:06.718Z,12.41
2022-09-27T12:41:06.880Z,12.46
2022-09-27T12:42:07.837Z,12.41
2022-09-27T12:43:07.186Z,12.44
2022-09-27T12:44:07.370Z,12.42
2022-09-27T12:45:07.508Z,12.24
2022-09-27T12:46:07.903Z,12.29
2022-09-27T12:47:07.840Z,12.24
2022-09-27T12:48:08.826Z,12.15
2022-09-27T12:49:08.326Z,12.21
2022-09-27T12:50:08.412Z,12.12
2022-09-27T12:51:09.332Z,12.06
2022-09-27T12:52:08.675Z,12.04
2022-09-27T12:53:08.836Z,11.96
2022-09-27T12:54:08.957Z,12.05
2022-09-27T12:55:09.100Z,12.01
2022-09-27T12:56:09.280Z,11.97
2022-09-27T12:57:09.411Z,11.97
2022-09-27T12:58:09.845Z,11.94
2022-09-27T12:59:09.809Z,11.94
2022-09-27T13:00:09.861Z,11.77
2022-09-27T13:01:10.101Z,11.64
2022-09-27T13:02:10.259Z,11.71
2022-09-27T13:03:15.900Z,11.54
2022-09-27T13:04:13.332Z,11.59
2022-09-27T13:05:10.643Z,11.52
2022-09-27T13:06:10.871Z,11.47
2022-09-27T13:07:11.111Z,11.38
2022-09-27T13:08:11.272Z,11.36